JBU1036 TJSJ-TIST
Flight info
| Callsign | JBU1036 |
|---|---|
| Flight time | 0h 16m |
| Altitude | 9000 |
| Route | SJU RTE2 STT |
| Aircraft | A320/M-SDE3FGHIRWY/LB1 |
Departure
| Time | 2026-04-20 16:28 |
|---|---|
| Airport | Luis Munoz Marin International Airport (TJSJ) |
Arrival
| Time | 2026-04-20 16:45 |
|---|---|
| Airport | Cyril E. King Airport (TIST) |
| Time | Latitude | Longitude | Altitude | Speed | Heading |
|---|---|---|---|---|---|
| 2026-04-20 16:17 | 18.43569 | -66.00375 | 17 ft | 0 kts | 359° |
| 2026-04-20 16:21 | 18.43564 | -66.00375 | 17 ft | 4 kts | 359° |
| 2026-04-20 16:21 | 18.43537 | -66.00375 | 18 ft | 4 kts | 357° |
| 2026-04-20 16:21 | 18.43521 | -66.00374 | 17 ft | 0 kts | 355° |
| 2026-04-20 16:24 | 18.43523 | -66.00381 | 17 ft | 2 kts | 283° |
| 2026-04-20 16:24 | 18.43491 | -66.00437 | 17 ft | 17 kts | 240° |
| 2026-04-20 16:24 | 18.43464 | -66.00579 | 17 ft | 21 kts | 268° |
| 2026-04-20 16:24 | 18.43466 | -66.00744 | 17 ft | 24 kts | 270° |
| 2026-04-20 16:25 | 18.43466 | -66.00924 | 17 ft | 26 kts | 270° |
| 2026-04-20 16:25 | 18.43466 | -66.01120 | 17 ft | 28 kts | 270° |
| 2026-04-20 16:25 | 18.43467 | -66.01318 | 17 ft | 19 kts | 275° |
| 2026-04-20 16:25 | 18.43576 | -66.01359 | 17 ft | 19 kts | 1° |
| 2026-04-20 16:26 | 18.43715 | -66.01359 | 17 ft | 15 kts | 358° |
| 2026-04-20 16:26 | 18.43776 | -66.01436 | 17 ft | 15 kts | 267° |
| 2026-04-20 16:26 | 18.43755 | -66.01508 | 17 ft | 0 kts | 266° |
| 2026-04-20 16:27 | 18.43755 | -66.01514 | 17 ft | 3 kts | 270° |
| 2026-04-20 16:27 | 18.43801 | -66.01567 | 17 ft | 15 kts | 338° |
| 2026-04-20 16:27 | 18.43898 | -66.01434 | 17 ft | 52 kts | 68° |
| 2026-04-20 16:27 | 18.44125 | -66.00873 | 19 ft | 111 kts | 67° |
| 2026-04-20 16:28 | 18.44492 | -65.99985 | 126 ft | 144 kts | 67° |
| 2026-04-20 16:28 | 18.44953 | -65.99049 | 823 ft | 145 kts | 55° |
| 2026-04-20 16:28 | 18.45687 | -65.98255 | 1278 ft | 161 kts | 47° |
| 2026-04-20 16:28 | 18.46561 | -65.97380 | 1588 ft | 186 kts | 47° |
| 2026-04-20 16:29 | 18.47570 | -65.96390 | 1912 ft | 210 kts | 49° |
| 2026-04-20 16:29 | 18.48285 | -65.94998 | 2316 ft | 228 kts | 78° |
| 2026-04-20 16:29 | 18.48511 | -65.93292 | 2913 ft | 244 kts | 86° |
| 2026-04-20 16:29 | 18.48662 | -65.91502 | 3841 ft | 248 kts | 86° |
| 2026-04-20 16:30 | 18.48805 | -65.89681 | 4812 ft | 252 kts | 86° |
| 2026-04-20 16:30 | 18.48923 | -65.87821 | 5713 ft | 257 kts | 89° |
| 2026-04-20 16:30 | 18.48927 | -65.85935 | 6647 ft | 260 kts | 91° |
| 2026-04-20 16:30 | 18.48894 | -65.84014 | 7433 ft | 266 kts | 92° |
| 2026-04-20 16:31 | 18.48845 | -65.82048 | 8275 ft | 270 kts | 92° |
| 2026-04-20 16:31 | 18.48791 | -65.80044 | 8800 ft | 275 kts | 92° |
| 2026-04-20 16:31 | 18.48736 | -65.78033 | 8967 ft | 276 kts | 91° |
| 2026-04-20 16:31 | 18.48686 | -65.76010 | 9011 ft | 278 kts | 91° |
| 2026-04-20 16:32 | 18.48641 | -65.73978 | 9021 ft | 277 kts | 91° |
| 2026-04-20 16:32 | 18.48600 | -65.71957 | 9017 ft | 275 kts | 91° |
| 2026-04-20 16:32 | 18.48562 | -65.69938 | 9019 ft | 276 kts | 91° |
| 2026-04-20 16:32 | 18.48522 | -65.67908 | 9026 ft | 279 kts | 91° |
| 2026-04-20 16:33 | 18.48315 | -65.65890 | 9031 ft | 277 kts | 105° |
| 2026-04-20 16:33 | 18.47710 | -65.63972 | 8889 ft | 276 kts | 108° |
| 2026-04-20 16:33 | 18.47095 | -65.62069 | 8742 ft | 275 kts | 108° |
| 2026-04-20 16:33 | 18.46483 | -65.60167 | 8586 ft | 275 kts | 108° |
| 2026-04-20 16:34 | 18.45868 | -65.58258 | 8309 ft | 275 kts | 108° |
| 2026-04-20 16:34 | 18.45254 | -65.56359 | 8019 ft | 272 kts | 108° |
| 2026-04-20 16:34 | 18.44649 | -65.54476 | 7728 ft | 271 kts | 108° |
| 2026-04-20 16:34 | 18.44048 | -65.52608 | 7449 ft | 269 kts | 108° |
| 2026-04-20 16:35 | 18.43448 | -65.50749 | 7174 ft | 267 kts | 108° |
| 2026-04-20 16:35 | 18.42854 | -65.48901 | 6888 ft | 266 kts | 108° |
| 2026-04-20 16:35 | 18.42260 | -65.47059 | 6608 ft | 265 kts | 108° |
| 2026-04-20 16:35 | 18.41671 | -65.45237 | 6367 ft | 261 kts | 108° |
| 2026-04-20 16:36 | 18.41091 | -65.43447 | 6132 ft | 256 kts | 108° |
| 2026-04-20 16:36 | 18.40520 | -65.41691 | 5885 ft | 252 kts | 108° |
| 2026-04-20 16:36 | 18.39956 | -65.39956 | 5639 ft | 249 kts | 108° |
| 2026-04-20 16:36 | 18.39401 | -65.38246 | 5404 ft | 245 kts | 108° |
| 2026-04-20 16:37 | 18.38854 | -65.36557 | 5170 ft | 242 kts | 108° |
| 2026-04-20 16:37 | 18.38314 | -65.34892 | 4920 ft | 238 kts | 109° |
| 2026-04-20 16:37 | 18.37782 | -65.33254 | 4674 ft | 235 kts | 108° |
| 2026-04-20 16:37 | 18.37258 | -65.31645 | 4427 ft | 231 kts | 108° |
| 2026-04-20 16:38 | 18.36753 | -65.30080 | 4197 ft | 227 kts | 108° |
| 2026-04-20 16:38 | 18.36249 | -65.28524 | 3952 ft | 223 kts | 108° |
| 2026-04-20 16:38 | 18.35756 | -65.26994 | 3709 ft | 218 kts | 108° |
| 2026-04-20 16:38 | 18.35264 | -65.25473 | 3466 ft | 215 kts | 108° |
| 2026-04-20 16:39 | 18.34791 | -65.24022 | 3253 ft | 209 kts | 108° |
| 2026-04-20 16:39 | 18.34321 | -65.22589 | 3011 ft | 206 kts | 108° |
| 2026-04-20 16:39 | 18.33860 | -65.21178 | 2841 ft | 201 kts | 108° |
| 2026-04-20 16:39 | 18.33407 | -65.19785 | 2807 ft | 202 kts | 107° |
| 2026-04-20 16:40 | 18.32955 | -65.18391 | 2809 ft | 200 kts | 105° |
| 2026-04-20 16:40 | 18.32848 | -65.16949 | 2805 ft | 201 kts | 86° |
| 2026-04-20 16:40 | 18.32935 | -65.15500 | 2801 ft | 192 kts | 87° |
| 2026-04-20 16:40 | 18.32981 | -65.14577 | 2804 ft | 183 kts | 88° |
| 2026-04-20 16:41 | 18.33041 | -65.13285 | 2715 ft | 176 kts | 88° |
| 2026-04-20 16:41 | 18.33098 | -65.12005 | 2521 ft | 173 kts | 87° |
| 2026-04-20 16:41 | 18.33152 | -65.10751 | 2282 ft | 170 kts | 87° |
| 2026-04-20 16:41 | 18.33205 | -65.09537 | 2066 ft | 165 kts | 88° |
| 2026-04-20 16:42 | 18.33254 | -65.08377 | 1854 ft | 152 kts | 89° |
| 2026-04-20 16:42 | 18.33300 | -65.07337 | 1680 ft | 135 kts | 89° |
| 2026-04-20 16:42 | 18.33341 | -65.06394 | 1507 ft | 126 kts | 87° |
| 2026-04-20 16:42 | 18.33381 | -65.05477 | 1342 ft | 124 kts | 88° |
| 2026-04-20 16:43 | 18.33420 | -65.04568 | 1179 ft | 125 kts | 88° |
| 2026-04-20 16:43 | 18.33460 | -65.03654 | 1010 ft | 127 kts | 84° |
| 2026-04-20 16:43 | 18.33499 | -65.02727 | 853 ft | 126 kts | 86° |
| 2026-04-20 16:43 | 18.33539 | -65.01798 | 708 ft | 127 kts | 90° |
| 2026-04-20 16:44 | 18.33579 | -65.00853 | 543 ft | 131 kts | 90° |
| 2026-04-20 16:44 | 18.33628 | -64.99890 | 368 ft | 132 kts | 90° |
| 2026-04-20 16:44 | 18.33669 | -64.98941 | 188 ft | 128 kts | 94° |
| 2026-04-20 16:44 | 18.33704 | -64.98013 | 34 ft | 121 kts | 92° |
| 2026-04-20 16:45 | 18.33728 | -64.97352 | 27 ft | 45 kts | 87° |
| 2026-04-20 16:45 | 18.33735 | -64.97155 | 27 ft | 14 kts | 98° |
| 2026-04-20 16:45 | 18.33672 | -64.97119 | 27 ft | 11 kts | 207° |
| 2026-04-20 16:45 | 18.33653 | -64.97203 | 27 ft | 13 kts | 267° |
| 2026-04-20 16:46 | 18.33649 | -64.97306 | 27 ft | 13 kts | 268° |
| 2026-04-20 16:46 | 18.33621 | -64.97391 | 27 ft | 13 kts | 209° |
| 2026-04-20 16:46 | 18.33562 | -64.97355 | 27 ft | 7 kts | 121° |
| 2026-04-20 16:46 | 18.33553 | -64.97340 | 27 ft | 0 kts | 123° |